Terminal Aerodrome Forecast
Issued by NWS Cleveland, OH

Home | Current Version | Previous Version | Graphics & Text | Print | Product List | Glossary On
Versions: 1 2 3 4 5 6 7 8 9 10 11 12 13 14 15
361
FTUS41 KCLE 290539
TAFCAK
TAF
KCAK 290539Z 2906/3006 16005KT P6SM BKN250
     FM290900 16005KT 5SM BR BKN250
     FM291200 18007KT P6SM SCT040 BKN250
     FM291800 20010G18KT P6SM BKN050
     FM300000 20005KT P6SM VCSH BKN100=

USA.gov is the U.S. government's official web portal to all federal, state and local government web resources and services.